Terminal Aerodrome Forecast
Issued by NWS Boston, MA

Home | Current Version | Previous Version | Text Only | Print | Product List | Glossary On
Versions: 1 2 3 4 5 6 7 8 9 10 11 12 13 14 15 16 17 18 19 20 21 22 23 24 25 26 27 28 29 30 31 32 33 34 35 36 37 38 39 40 41 42 43 44 45 46 47 48 49 50
000
FTUS41 KBOX 241934 AAA
TAFPVD
TAF AMD
KPVD 241934Z 2420/2518 20015G28KT P6SM OVC060
     FM250000 23009KT P6SM OVC040
     FM250700 24007KT P6SM BKN100
     FM251200 29004KT P6SM VCSH OVC025
     FM251600 36006KT P6SM VCSH OVC020=

USA.gov is the U.S. government's official web portal to all federal, state and local government web resources and services.